sensor_id;sensor_type;location;lat;lon;timestamp;pressure;altitude;pressure_sealevel;temperature;humidity
59987;BME280;46181;51.498;5.392;2023-05-29T00:03:58;102163.2;;;17.68;53.22363
59987;BME280;46181;51.498;5.392;2023-05-29T00:08:28;102177.5;;;17.58;53.3252
59987;BME280;46181;51.498;5.392;2023-05-29T00:12:58;102176.5;;;17.45;53.44824
59987;BME280;46181;51.498;5.392;2023-05-29T00:17:28;102185.4;;;17.37;53.28906
59987;BME280;46181;51.498;5.392;2023-05-29T00:21:58;102187.9;;;17.32;52.97363
59987;BME280;46181;51.498;5.392;2023-05-29T00:26:28;102184.9;;;17.19;52.78809
59987;BME280;46181;51.498;5.392;2023-05-29T00:30:58;102188.7;;;17.09;52.95801
59987;BME280;46181;51.498;5.392;2023-05-29T00:35:28;102192.3;;;17.07;52.875
59987;BME280;46181;51.498;5.392;2023-05-29T00:39:59;102198.8;;;16.97;53.06836
59987;BME280;46181;51.498;5.392;2023-05-29T00:44:28;102196.5;;;16.84;53.14551
59987;BME280;46181;51.498;5.392;2023-05-29T00:48:59;102194.5;;;16.77;52.83887
59987;BME280;46181;51.498;5.392;2023-05-29T00:53:29;102200.1;;;16.67;52.33691
59987;BME280;46181;51.498;5.392;2023-05-29T00:57:58;102199.3;;;16.61;52.06543
59987;BME280;46181;51.498;5.392;2023-05-29T01:02:29;102203.3;;;16.5;51.89355
59987;BME280;46181;51.498;5.392;2023-05-29T01:06:58;102206.1;;;16.52;51.44824
59987;BME280;46181;51.498;5.392;2023-05-29T01:11:38;102216.4;;;16.29;51.54785
59987;BME280;46181;51.498;5.392;2023-05-29T01:16:03;102221;;;16.29;51.19336
59987;BME280;46181;51.498;5.392;2023-05-29T01:20:34;102224.8;;;16.2;51.21777
59987;BME280;46181;51.498;5.392;2023-05-29T01:25:02;102230.8;;;16.12;51.4707
59987;BME280;46181;51.498;5.392;2023-05-29T01:29:32;102221.8;;;15.99;51.59375
59987;BME280;46181;51.498;5.392;2023-05-29T01:34:05;102227.9;;;15.92;51.7207
59987;BME280;46181;51.498;5.392;2023-05-29T01:38:28;102232.4;;;15.94;51.73535
59987;BME280;46181;51.498;5.392;2023-05-29T01:42:59;102229.1;;;15.91;51.83398
59987;BME280;46181;51.498;5.392;2023-05-29T01:47:29;102229.1;;;15.83;51.89551
59987;BME280;46181;51.498;5.392;2023-05-29T01:51:59;102230.1;;;15.78;51.94531
59987;BME280;46181;51.498;5.392;2023-05-29T01:56:29;102230.9;;;15.78;51.96777
59987;BME280;46181;51.498;5.392;2023-05-29T02:00:59;102223.2;;;15.72;52.04102
59987;BME280;46181;51.498;5.392;2023-05-29T02:05:28;102224.7;;;15.69;52.05957
59987;BME280;46181;51.498;5.392;2023-05-29T02:09:58;102228.7;;;15.65;52.13379
59987;BME280;46181;51.498;5.392;2023-05-29T02:14:28;102224.1;;;15.59;52.23047
59987;BME280;46181;51.498;5.392;2023-05-29T02:18:58;102227;;;15.52;52.30273
59987;BME280;46181;51.498;5.392;2023-05-29T02:23:28;102232.5;;;15.49;52.37793
59987;BME280;46181;51.498;5.392;2023-05-29T02:27:58;102234;;;15.43;52.46191
59987;BME280;46181;51.498;5.392;2023-05-29T02:32:28;102237.2;;;15.4;52.49316
59987;BME280;46181;51.498;5.392;2023-05-29T02:36:58;102242.7;;;15.35;52.44141
59987;BME280;46181;51.498;5.392;2023-05-29T02:41:28;102245.4;;;15.3;52.5957
59987;BME280;46181;51.498;5.392;2023-05-29T02:45:58;102246.2;;;15.23;52.64355
59987;BME280;46181;51.498;5.392;2023-05-29T02:50:28;102249.5;;;15.2;52.70898
59987;BME280;46181;51.498;5.392;2023-05-29T02:54:58;102248.7;;;15.14;52.88379
59987;BME280;46181;51.498;5.392;2023-05-29T02:59:28;102258.6;;;15.06;52.95313
59987;BME280;46181;51.498;5.392;2023-05-29T03:03:58;102259.8;;;15.02;53.01758
59987;BME280;46181;51.498;5.392;2023-05-29T03:08:28;102256.3;;;14.98;52.97754
59987;BME280;46181;51.498;5.392;2023-05-29T03:12:58;102257;;;14.91;53.04883
59987;BME280;46181;51.498;5.392;2023-05-29T03:17:28;102256.6;;;14.88;53.22754
59987;BME280;46181;51.498;5.392;2023-05-29T03:21:58;102256.8;;;14.8;53.44531
59987;BME280;46181;51.498;5.392;2023-05-29T03:26:28;102249;;;14.77;53.55762
59987;BME280;46181;51.498;5.392;2023-05-29T03:30:58;102260.3;;;14.72;53.64063
59987;BME280;46181;51.498;5.392;2023-05-29T03:35:29;102253.6;;;14.65;53.87207
59987;BME280;46181;51.498;5.392;2023-05-29T03:39:58;102257.3;;;14.67;53.94238
59987;BME280;46181;51.498;5.392;2023-05-29T03:44:28;102265.3;;;14.61;54.17383
59987;BME280;46181;51.498;5.392;2023-05-29T03:48:58;102273.1;;;14.56;54.38281
59987;BME280;46181;51.498;5.392;2023-05-29T03:53:28;102272.5;;;14.58;54.56836
59987;BME280;46181;51.498;5.392;2023-05-29T03:57:58;102273.6;;;14.57;54.73828
59987;BME280;46181;51.498;5.392;2023-05-29T04:02:28;102280.1;;;14.53;55.1084
59987;BME280;46181;51.498;5.392;2023-05-29T04:06:58;102279.3;;;14.55;55.06543
59987;BME280;46181;51.498;5.392;2023-05-29T04:11:28;102288.1;;;14.56;55.18066
59987;BME280;46181;51.498;5.392;2023-05-29T04:15:58;102291.8;;;14.59;55.19531
59987;BME280;46181;51.498;5.392;2023-05-29T04:20:29;102300.2;;;14.59;55.2168
59987;BME280;46181;51.498;5.392;2023-05-29T04:24:59;102301.4;;;14.67;55.14844
59987;BME280;46181;51.498;5.392;2023-05-29T04:29:28;102299.8;;;14.73;55.08789
59987;BME280;46181;51.498;5.392;2023-05-29T04:33:58;102307;;;14.79;54.91406
59987;BME280;46181;51.498;5.392;2023-05-29T04:38:28;102298.6;;;14.89;54.68652
59987;BME280;46181;51.498;5.392;2023-05-29T04:42:58;102304.8;;;14.96;54.55859
59987;BME280;46181;51.498;5.392;2023-05-29T04:47:28;102312.5;;;15.08;54.19824
59987;BME280;46181;51.498;5.392;2023-05-29T04:51:58;102310.6;;;15.16;53.94531
59987;BME280;46181;51.498;5.392;2023-05-29T04:56:28;102307.3;;;15.31;53.64551
59987;BME280;46181;51.498;5.392;2023-05-29T05:00:58;102307.8;;;15.39;53.26758
59987;BME280;46181;51.498;5.392;2023-05-29T05:05:28;102310;;;15.53;53.14648
59987;BME280;46181;51.498;5.392;2023-05-29T05:09:58;102309.1;;;15.73;52.68066
59987;BME280;46181;51.498;5.392;2023-05-29T05:14:28;102313.5;;;15.85;52.18262
59987;BME280;46181;51.498;5.392;2023-05-29T05:18:58;102316.1;;;16.05;51.85059
59987;BME280;46181;51.498;5.392;2023-05-29T05:23:28;102327.1;;;16.17;51.4873
59987;BME280;46181;51.498;5.392;2023-05-29T05:27:58;102327;;;16.3;50.89746
59987;BME280;46181;51.498;5.392;2023-05-29T05:32:28;102333.4;;;16.39;50.50781
59987;BME280;46181;51.498;5.392;2023-05-29T05:36:58;102340.5;;;16.51;50.06348
59987;BME280;46181;51.498;5.392;2023-05-29T05:41:28;102340.7;;;16.62;49.34473
59987;BME280;46181;51.498;5.392;2023-05-29T05:45:58;102342.3;;;16.8;48.63184
59987;BME280;46181;51.498;5.392;2023-05-29T05:50:29;102337.1;;;17.04;48.94531
59987;BME280;46181;51.498;5.392;2023-05-29T05:54:58;102332.4;;;17.68;47.86719
59987;BME280;46181;51.498;5.392;2023-05-29T05:59:28;102333.6;;;18.1;46.42969
59987;BME280;46181;51.498;5.392;2023-05-29T06:03:59;102335.3;;;18.44;45.85742
59987;BME280;46181;51.498;5.392;2023-05-29T06:08:29;102333.6;;;18.68;44.9834
59987;BME280;46181;51.498;5.392;2023-05-29T06:12:58;102334.4;;;18.36;44.64063
59987;BME280;46181;51.498;5.392;2023-05-29T06:17:30;102348;;;18.17;44.77148
59987;BME280;46181;51.498;5.392;2023-05-29T06:21:58;102348.2;;;18.12;44.71973
59987;BME280;46181;51.498;5.392;2023-05-29T06:26:29;102349.9;;;18.06;44.55371
59987;BME280;46181;51.498;5.392;2023-05-29T06:30:59;102362.9;;;18.12;44.73145
59987;BME280;46181;51.498;5.392;2023-05-29T06:35:29;102362.1;;;18.2;44.34863
59987;BME280;46181;51.498;5.392;2023-05-29T06:39:58;102370.2;;;18.22;44.17871
59987;BME280;46181;51.498;5.392;2023-05-29T06:44:28;102361.9;;;18.18;43.81738
59987;BME280;46181;51.498;5.392;2023-05-29T06:48:59;102364.6;;;18.29;43.32324
59987;BME280;46181;51.498;5.392;2023-05-29T06:53:28;102363.7;;;18.29;43.27734
59987;BME280;46181;51.498;5.392;2023-05-29T06:57:58;102361.7;;;18.4;42.99902
59987;BME280;46181;51.498;5.392;2023-05-29T07:02:28;102364.3;;;18.61;42.63867
59987;BME280;46181;51.498;5.392;2023-05-29T07:06:59;102367.8;;;18.79;42.75977
59987;BME280;46181;51.498;5.392;2023-05-29T07:11:29;102362.4;;;18.8;42.48535
59987;BME280;46181;51.498;5.392;2023-05-29T07:15:59;102374.9;;;18.93;42.12793
59987;BME280;46181;51.498;5.392;2023-05-29T07:20:29;102370.7;;;18.99;41.96191
59987;BME280;46181;51.498;5.392;2023-05-29T07:24:59;102362.7;;;19.28;41.68848
59987;BME280;46181;51.498;5.392;2023-05-29T07:29:29;102362.9;;;19.31;40.66504
59987;BME280;46181;51.498;5.392;2023-05-29T07:33:59;102369.3;;;19.35;40.67969
59987;BME280;46181;51.498;5.392;2023-05-29T07:38:29;102365.9;;;19.45;40.09863
59987;BME280;46181;51.498;5.392;2023-05-29T07:42:58;102379.4;;;19.6;39.97461
59987;BME280;46181;51.498;5.392;2023-05-29T07:47:29;102377.7;;;19.77;39.9668
59987;BME280;46181;51.498;5.392;2023-05-29T07:51:58;102376;;;19.89;39.19141
59987;BME280;46181;51.498;5.392;2023-05-29T07:56:29;102377.8;;;20.02;39.15625
59987;BME280;46181;51.498;5.392;2023-05-29T08:00:59;102381.8;;;20.04;38.93945
59987;BME280;46181;51.498;5.392;2023-05-29T08:05:29;102386;;;20.07;38.91797
59987;BME280;46181;51.498;5.392;2023-05-29T08:09:59;102394.6;;;20.23;38.71191
59987;BME280;46181;51.498;5.392;2023-05-29T08:14:29;102392.3;;;20.24;38.11133
59987;BME280;46181;51.498;5.392;2023-05-29T08:18:59;102387.9;;;20.41;38.00977
59987;BME280;46181;51.498;5.392;2023-05-29T08:23:29;102389.3;;;20.63;37.47266
59987;BME280;46181;51.498;5.392;2023-05-29T08:27:59;102386.5;;;20.65;37.25391
59987;BME280;46181;51.498;5.392;2023-05-29T08:32:29;102399.7;;;20.81;37.04688
59987;BME280;46181;51.498;5.392;2023-05-29T08:36:59;102392.4;;;20.99;36.49414
59987;BME280;46181;51.498;5.392;2023-05-29T08:41:31;102402.2;;;20.82;36.82715
59987;BME280;46181;51.498;5.392;2023-05-29T08:46:02;102406.3;;;20.93;37.10352
59987;BME280;46181;51.498;5.392;2023-05-29T08:50:29;102400;;;21.04;36.7998
59987;BME280;46181;51.498;5.392;2023-05-29T08:54:59;102402.8;;;20.97;36.52734
59987;BME280;46181;51.498;5.392;2023-05-29T08:59:29;102409.2;;;20.98;36.39941
59987;BME280;46181;51.498;5.392;2023-05-29T09:03:59;102409.2;;;21.04;36.24316
59987;BME280;46181;51.498;5.392;2023-05-29T09:08:29;102408.8;;;21.08;36.36133
59987;BME280;46181;51.498;5.392;2023-05-29T09:12:59;102419.6;;;21.21;36.05859
59987;BME280;46181;51.498;5.392;2023-05-29T09:17:29;102414.3;;;21.35;35.93066
59987;BME280;46181;51.498;5.392;2023-05-29T09:22:04;102406.8;;;21.5;35.58301
59987;BME280;46181;51.498;5.392;2023-05-29T09:26:30;102415.6;;;21.54;35.02734
59987;BME280;46181;51.498;5.392;2023-05-29T09:30:59;102412.8;;;21.65;34.71094
59987;BME280;46181;51.498;5.392;2023-05-29T09:35:30;102413.2;;;21.89;34.36914
59987;BME280;46181;51.498;5.392;2023-05-29T09:39:59;102406.3;;;22.11;34.21191
59987;BME280;46181;51.498;5.392;2023-05-29T09:44:29;102392.4;;;22.2;34.21875
59987;BME280;46181;51.498;5.392;2023-05-29T09:48:59;102398.3;;;22.46;33.5166
59987;BME280;46181;51.498;5.392;2023-05-29T09:53:29;102407.2;;;22.48;33.69238
59987;BME280;46181;51.498;5.392;2023-05-29T09:57:59;102400.3;;;22.72;33.4541
59987;BME280;46181;51.498;5.392;2023-05-29T10:02:29;102404.5;;;22.87;32.60254
59987;BME280;46181;51.498;5.392;2023-05-29T10:06:59;102404.2;;;22.64;32.90039
59987;BME280;46181;51.498;5.392;2023-05-29T10:11:29;102410.4;;;22.68;33.60254
59987;BME280;46181;51.498;5.392;2023-05-29T10:16:00;102396.8;;;22.98;33.1582
59987;BME280;46181;51.498;5.392;2023-05-29T10:20:29;102413.5;;;23.14;32.7627
59987;BME280;46181;51.498;5.392;2023-05-29T10:24:59;102391;;;23.21;32.65039
59987;BME280;46181;51.498;5.392;2023-05-29T10:29:34;102395.1;;;23.28;32.30566
59987;BME280;46181;51.498;5.392;2023-05-29T10:34:07;102387.5;;;23.36;32.70801
59987;BME280;46181;51.498;5.392;2023-05-29T10:38:29;102385.5;;;23.64;32.31934
59987;BME280;46181;51.498;5.392;2023-05-29T10:42:59;102385.4;;;23.82;31.88867
59987;BME280;46181;51.498;5.392;2023-05-29T10:47:35;102387.8;;;23.88;30.85254
59987;BME280;46181;51.498;5.392;2023-05-29T10:52:00;102385.6;;;23.84;31.1543
59987;BME280;46181;51.498;5.392;2023-05-29T10:56:31;102393.6;;;23.89;31.15723
59987;BME280;46181;51.498;5.392;2023-05-29T11:00:59;102386;;;24.01;31.19922
59987;BME280;46181;51.498;5.392;2023-05-29T11:05:35;102380.6;;;24.16;31.11719
59987;BME280;46181;51.498;5.392;2023-05-29T11:09:59;102375.7;;;24.54;30.25293
59987;BME280;46181;51.498;5.392;2023-05-29T11:14:29;102376;;;24.63;29.80273
59987;BME280;46181;51.498;5.392;2023-05-29T11:18:59;102368.9;;;24.75;30.18555
59987;BME280;46181;51.498;5.392;2023-05-29T11:23:31;102358.8;;;24.9;29.75
59987;BME280;46181;51.498;5.392;2023-05-29T11:27:59;102362.4;;;25;30.01465
59987;BME280;46181;51.498;5.392;2023-05-29T11:32:30;102358.2;;;25.01;29.5459
59987;BME280;46181;51.498;5.392;2023-05-29T11:37:00;102355;;;24.93;29.91602
59987;BME280;46181;51.498;5.392;2023-05-29T11:41:29;102363.6;;;25.13;29.83496
59987;BME280;46181;51.498;5.392;2023-05-29T11:45:59;102367.7;;;25.27;29.32813
59987;BME280;46181;51.498;5.392;2023-05-29T11:50:33;102359.3;;;25.35;29.14551
59987;BME280;46181;51.498;5.392;2023-05-29T11:54:59;102363.4;;;25.28;28.80078
59987;BME280;46181;51.498;5.392;2023-05-29T11:59:29;102356.4;;;25.25;28.91602
59987;BME280;46181;51.498;5.392;2023-05-29T12:03:59;102349.1;;;25.35;29.2041
59987;BME280;46181;51.498;5.392;2023-05-29T12:08:29;102341.5;;;25.67;29.06055
59987;BME280;46181;51.498;5.392;2023-05-29T12:13:03;102347.7;;;25.83;28.87109
59987;BME280;46181;51.498;5.392;2023-05-29T12:17:29;102352.6;;;25.98;28.19824
59987;BME280;46181;51.498;5.392;2023-05-29T12:22:00;102353.9;;;26.09;27.67676
59987;BME280;46181;51.498;5.392;2023-05-29T12:26:30;102349.8;;;26.15;27.45703
59987;BME280;46181;51.498;5.392;2023-05-29T12:31:01;102348.2;;;26.23;27.02637
59987;BME280;46181;51.498;5.392;2023-05-29T12:35:29;102343.4;;;26.11;26.99414
59987;BME280;46181;51.498;5.392;2023-05-29T12:40:13;102347.2;;;26.03;27.30859
59987;BME280;46181;51.498;5.392;2023-05-29T12:44:29;102342.7;;;26.17;27.09277
59987;BME280;46181;51.498;5.392;2023-05-29T12:49:10;102348;;;26.33;26.91406
59987;BME280;46181;51.498;5.392;2023-05-29T12:53:31;102346.2;;;26.59;26.17578
59987;BME280;46181;51.498;5.392;2023-05-29T12:57:59;102355;;;26.45;25.6377
59987;BME280;46181;51.498;5.392;2023-05-29T13:02:29;102353.2;;;26.4;25.77539
59987;BME280;46181;51.498;5.392;2023-05-29T13:06:59;102346.1;;;26.35;25.76074
59987;BME280;46181;51.498;5.392;2023-05-29T13:11:29;102342.3;;;26.5;26.00488
59987;BME280;46181;51.498;5.392;2023-05-29T13:15:59;102345.4;;;26.67;25.69629
59987;BME280;46181;51.498;5.392;2023-05-29T13:20:29;102349.1;;;26.69;25.40332
59987;BME280;46181;51.498;5.392;2023-05-29T13:24:59;102351.5;;;26.56;25.25488
59987;BME280;46181;51.498;5.392;2023-05-29T13:29:29;102355;;;26.41;25.37598
59987;BME280;46181;51.498;5.392;2023-05-29T13:33:59;102353.1;;;26.29;24.43848
59987;BME280;46181;51.498;5.392;2023-05-29T13:38:29;102351.1;;;26.16;25.12598
59987;BME280;46181;51.498;5.392;2023-05-29T13:42:59;102349.4;;;26.24;25.23633
59987;BME280;46181;51.498;5.392;2023-05-29T13:47:29;102345.5;;;26.09;25.55762
59987;BME280;46181;51.498;5.392;2023-05-29T13:51:59;102345.2;;;26.13;24.51172
59987;BME280;46181;51.498;5.392;2023-05-29T13:56:29;102342.5;;;26.26;24.49609
59987;BME280;46181;51.498;5.392;2023-05-29T14:00:59;102352.7;;;26.38;23.74805
59987;BME280;46181;51.498;5.392;2023-05-29T14:05:29;102336.2;;;26.35;23.6875
59987;BME280;46181;51.498;5.392;2023-05-29T14:09:59;102337;;;26.52;23.74316
59987;BME280;46181;51.498;5.392;2023-05-29T14:14:29;102337.5;;;26.56;23.68652
59987;BME280;46181;51.498;5.392;2023-05-29T14:18:59;102338.7;;;26.48;24.17773
59987;BME280;46181;51.498;5.392;2023-05-29T14:23:29;102331.4;;;26.61;24.32617
59987;BME280;46181;51.498;5.392;2023-05-29T14:27:59;102338.1;;;26.59;24.59668
59987;BME280;46181;51.498;5.392;2023-05-29T14:32:29;102322.8;;;26.66;24.69434
59987;BME280;46181;51.498;5.392;2023-05-29T14:36:59;102325.1;;;26.77;24.65332
59987;BME280;46181;51.498;5.392;2023-05-29T14:41:29;102326.6;;;26.7;24.88477
59987;BME280;46181;51.498;5.392;2023-05-29T14:45:59;102332.7;;;26.69;24.58984
59987;BME280;46181;51.498;5.392;2023-05-29T14:50:29;102337.6;;;26.57;24.61914
59987;BME280;46181;51.498;5.392;2023-05-29T14:55:00;102335.9;;;26.6;24.47852
59987;BME280;46181;51.498;5.392;2023-05-29T14:59:29;102333.6;;;26.55;24.34668
59987;BME280;46181;51.498;5.392;2023-05-29T15:03:59;102326.8;;;26.34;24.45215
59987;BME280;46181;51.498;5.392;2023-05-29T15:08:29;102318.4;;;26.08;24.82715
59987;BME280;46181;51.498;5.392;2023-05-29T15:12:59;102323.7;;;26.13;25.23047
59987;BME280;46181;51.498;5.392;2023-05-29T15:17:29;102331.9;;;26.22;24.95313
59987;BME280;46181;51.498;5.392;2023-05-29T15:21:59;102329.6;;;26.31;24.98145
59987;BME280;46181;51.498;5.392;2023-05-29T15:26:29;102321.2;;;26.66;24.54102
59987;BME280;46181;51.498;5.392;2023-05-29T15:30:59;102320;;;26.84;23.98535
59987;BME280;46181;51.498;5.392;2023-05-29T15:35:29;102319.5;;;27.77;23.25391
59987;BME280;46181;51.498;5.392;2023-05-29T15:39:59;102319.7;;;28.11;21.88672
59987;BME280;46181;51.498;5.392;2023-05-29T15:44:29;102311.2;;;28.83;21.11523
59987;BME280;46181;51.498;5.392;2023-05-29T15:48:59;102310.6;;;29.71;20.19336
59987;BME280;46181;51.498;5.392;2023-05-29T15:53:29;102315;;;30.43;19.34473
59987;BME280;46181;51.498;5.392;2023-05-29T15:57:59;102306.4;;;30.52;18.97949
59987;BME280;46181;51.498;5.392;2023-05-29T16:02:29;102303.1;;;30.78;18.65625
59987;BME280;46181;51.498;5.392;2023-05-29T16:06:59;102296.1;;;30.69;18.56934
59987;BME280;46181;51.498;5.392;2023-05-29T16:11:29;102297.7;;;29.15;19.36133
59987;BME280;46181;51.498;5.392;2023-05-29T16:15:59;102302.5;;;27.51;20.81738
59987;BME280;46181;51.498;5.392;2023-05-29T16:20:29;102304.9;;;26.55;21.29199
59987;BME280;46181;51.498;5.392;2023-05-29T16:24:59;102300.8;;;25.96;22.22949
59987;BME280;46181;51.498;5.392;2023-05-29T16:29:29;102301.1;;;26.95;22.1377
59987;BME280;46181;51.498;5.392;2023-05-29T16:33:59;102294.2;;;28.47;20.05469
59987;BME280;46181;51.498;5.392;2023-05-29T16:38:29;102305.8;;;27.24;20.83984
59987;BME280;46181;51.498;5.392;2023-05-29T16:42:59;102315.3;;;26.1;22.18945
59987;BME280;46181;51.498;5.392;2023-05-29T16:47:29;102306.8;;;25.36;23.34082
59987;BME280;46181;51.498;5.392;2023-05-29T16:56:29;102307.2;;;24.54;24.69531
59987;BME280;46181;51.498;5.392;2023-05-29T17:00:59;102309.5;;;24.34;24.28516
59987;BME280;46181;51.498;5.392;2023-05-29T17:05:29;102300.8;;;24.13;24.73145
59987;BME280;46181;51.498;5.392;2023-05-29T17:09:59;102307.6;;;24.07;25.32617
59987;BME280;46181;51.498;5.392;2023-05-29T17:14:29;102308.3;;;23.95;25.59961
59987;BME280;46181;51.498;5.392;2023-05-29T17:18:59;102317.8;;;23.78;25.81348
59987;BME280;46181;51.498;5.392;2023-05-29T17:23:29;102322.6;;;23.68;25.76074
59987;BME280;46181;51.498;5.392;2023-05-29T17:27:59;102319.7;;;23.53;25.64648
59987;BME280;46181;51.498;5.392;2023-05-29T17:32:29;102308.3;;;23.4;26.00195
59987;BME280;46181;51.498;5.392;2023-05-29T17:36:59;102309.8;;;23.38;26.22266
59987;BME280;46181;51.498;5.392;2023-05-29T17:41:29;102321.1;;;23.32;26.17188
59987;BME280;46181;51.498;5.392;2023-05-29T17:45:59;102326.4;;;23.31;25.8916
59987;BME280;46181;51.498;5.392;2023-05-29T17:50:29;102327.7;;;23.27;26.1582
59987;BME280;46181;51.498;5.392;2023-05-29T17:54:59;102325.6;;;23.17;26.39746
59987;BME280;46181;51.498;5.392;2023-05-29T17:59:29;102322;;;23.06;26.57813
59987;BME280;46181;51.498;5.392;2023-05-29T18:03:59;102325.7;;;22.99;26.69141
59987;BME280;46181;51.498;5.392;2023-05-29T18:08:29;102331.7;;;22.98;26.71387
59987;BME280;46181;51.498;5.392;2023-05-29T18:12:59;102327.1;;;22.92;26.69824
59987;BME280;46181;51.498;5.392;2023-05-29T18:17:29;102327.7;;;22.84;26.13281
59987;BME280;46181;51.498;5.392;2023-05-29T18:21:59;102322.3;;;22.78;26.01172
59987;BME280;46181;51.498;5.392;2023-05-29T18:26:29;102331.5;;;22.69;26.13574
59987;BME280;46181;51.498;5.392;2023-05-29T18:30:59;102331.1;;;22.58;26.21094
59987;BME280;46181;51.498;5.392;2023-05-29T18:35:29;102331.4;;;22.48;26.35645
59987;BME280;46181;51.498;5.392;2023-05-29T18:39:59;102337.7;;;22.45;26.6123
59987;BME280;46181;51.498;5.392;2023-05-29T18:44:29;102334.5;;;22.3;26.5332
59987;BME280;46181;51.498;5.392;2023-05-29T18:48:59;102331.7;;;22.22;26.64551
59987;BME280;46181;51.498;5.392;2023-05-29T18:53:29;102334.5;;;22.11;26.97559
59987;BME280;46181;51.498;5.392;2023-05-29T18:57:59;102336.7;;;21.99;27.31934
59987;BME280;46181;51.498;5.392;2023-05-29T19:02:29;102330.2;;;21.93;27.28027
59987;BME280;46181;51.498;5.392;2023-05-29T19:06:59;102330.3;;;21.84;27.07715
59987;BME280;46181;51.498;5.392;2023-05-29T19:11:29;102340;;;21.72;27.12793
59987;BME280;46181;51.498;5.392;2023-05-29T19:15:59;102340;;;21.62;27.14453
59987;BME280;46181;51.498;5.392;2023-05-29T19:20:29;102342.5;;;21.55;27.28027
59987;BME280;46181;51.498;5.392;2023-05-29T19:24:59;102344.7;;;21.41;27.39941
59987;BME280;46181;51.498;5.392;2023-05-29T19:29:29;102349.9;;;21.31;27.49805
59987;BME280;46181;51.498;5.392;2023-05-29T19:33:59;102346.3;;;21.2;27.77148
59987;BME280;46181;51.498;5.392;2023-05-29T19:38:29;102353.1;;;21.1;27.93945
59987;BME280;46181;51.498;5.392;2023-05-29T19:42:59;102361.9;;;20.95;28.34863
59987;BME280;46181;51.498;5.392;2023-05-29T19:47:29;102366.5;;;20.84;28.75977
59987;BME280;46181;51.498;5.392;2023-05-29T19:51:59;102369.2;;;20.73;29.21777
59987;BME280;46181;51.498;5.392;2023-05-29T19:56:29;102381.1;;;20.62;29.66406
59987;BME280;46181;51.498;5.392;2023-05-29T20:00:59;102380.2;;;20.48;30.07227
59987;BME280;46181;51.498;5.392;2023-05-29T20:05:29;102390.4;;;20.36;30.43457
59987;BME280;46181;51.498;5.392;2023-05-29T20:09:59;102395.1;;;20.23;30.80859
59987;BME280;46181;51.498;5.392;2023-05-29T20:14:29;102397.9;;;20.09;31.20605
59987;BME280;46181;51.498;5.392;2023-05-29T20:18:59;102403.7;;;19.98;31.5332
59987;BME280;46181;51.498;5.392;2023-05-29T20:23:29;102413.3;;;19.87;31.97852
59987;BME280;46181;51.498;5.392;2023-05-29T20:27:59;102420.4;;;19.79;32.31934
59987;BME280;46181;51.498;5.392;2023-05-29T20:32:29;102423.1;;;19.68;32.6709
59987;BME280;46181;51.498;5.392;2023-05-29T20:36:59;102421.4;;;19.58;33.02246
59987;BME280;46181;51.498;5.392;2023-05-29T20:41:29;102423.8;;;19.46;33.32617
59987;BME280;46181;51.498;5.392;2023-05-29T20:46:00;102423.1;;;19.37;33.5625
59987;BME280;46181;51.498;5.392;2023-05-29T20:50:29;102426.1;;;19.23;33.875
59987;BME280;46181;51.498;5.392;2023-05-29T20:54:59;102419;;;19.13;34.22559
59987;BME280;46181;51.498;5.392;2023-05-29T20:59:29;102419.6;;;19.04;34.49707
59987;BME280;46181;51.498;5.392;2023-05-29T21:03:59;102411.3;;;18.91;34.77441
59987;BME280;46181;51.498;5.392;2023-05-29T21:08:29;102413;;;18.81;35.02148
59987;BME280;46181;51.498;5.392;2023-05-29T21:12:59;102419.5;;;18.7;35.23145
59987;BME280;46181;51.498;5.392;2023-05-29T21:17:29;102422.4;;;18.6;35.4082
59987;BME280;46181;51.498;5.392;2023-05-29T21:21:59;102429.8;;;18.52;35.54102
59987;BME280;46181;51.498;5.392;2023-05-29T21:26:29;102429.5;;;18.41;35.83203
59987;BME280;46181;51.498;5.392;2023-05-29T21:30:59;102429.2;;;18.3;36.13477
59987;BME280;46181;51.498;5.392;2023-05-29T21:35:29;102433.3;;;18.14;36.40918
59987;BME280;46181;51.498;5.392;2023-05-29T21:39:59;102434.3;;;18.08;36.47363
59987;BME280;46181;51.498;5.392;2023-05-29T21:44:29;102436;;;18.06;36.76074
59987;BME280;46181;51.498;5.392;2023-05-29T21:48:59;102443.6;;;17.89;37.20703
59987;BME280;46181;51.498;5.392;2023-05-29T21:53:29;102454.9;;;17.73;37.5625
59987;BME280;46181;51.498;5.392;2023-05-29T21:57:59;102461.2;;;17.71;37.6416
59987;BME280;46181;51.498;5.392;2023-05-29T22:02:29;102468.2;;;17.63;37.87598
59987;BME280;46181;51.498;5.392;2023-05-29T22:06:59;102460.7;;;17.52;38.08496
59987;BME280;46181;51.498;5.392;2023-05-29T22:11:29;102463.2;;;17.44;38.42383
59987;BME280;46181;51.498;5.392;2023-05-29T22:15:59;102469;;;17.34;38.70215
59987;BME280;46181;51.498;5.392;2023-05-29T22:20:29;102466.1;;;17.23;38.99121
59987;BME280;46181;51.498;5.392;2023-05-29T22:24:59;102471;;;17.15;39.25977
59987;BME280;46181;51.498;5.392;2023-05-29T22:29:29;102474.9;;;17.07;39.57422
59987;BME280;46181;51.498;5.392;2023-05-29T22:33:59;102476.1;;;17;39.86621
59987;BME280;46181;51.498;5.392;2023-05-29T22:38:29;102480.6;;;16.9;40.15625
59987;BME280;46181;51.498;5.392;2023-05-29T22:42:59;102483.4;;;16.81;40.38965
59987;BME280;46181;51.498;5.392;2023-05-29T22:47:29;102481.2;;;16.74;40.7041
59987;BME280;46181;51.498;5.392;2023-05-29T22:51:59;102476.3;;;16.6;41.03613
59987;BME280;46181;51.498;5.392;2023-05-29T22:56:29;102475.6;;;16.57;41.31934
59987;BME280;46181;51.498;5.392;2023-05-29T23:00:59;102485.2;;;16.44;41.75488
59987;BME280;46181;51.498;5.392;2023-05-29T23:05:29;102489.3;;;16.35;42.11328
59987;BME280;46181;51.498;5.392;2023-05-29T23:09:59;102493.6;;;16.27;42.36914